createdAt,value
2023-04-14T00:01:15.642Z,10.27
2023-04-14T00:03:43.249Z,7.72
2023-04-14T00:06:10.790Z,5.75
2023-04-14T00:08:38.279Z,7.80
2023-04-14T00:11:06.125Z,5.70
2023-04-14T00:13:33.609Z,6.72
2023-04-14T00:16:02.462Z,8.50
2023-04-14T00:18:30.149Z,7.25
2023-04-14T00:20:57.679Z,9.38
2023-04-14T00:23:25.170Z,6.60
2023-04-14T00:25:52.840Z,9.23
2023-04-14T00:28:21.089Z,8.45
2023-04-14T00:30:48.633Z,8.30
2023-04-14T00:33:17.456Z,8.20
2023-04-14T00:35:44.984Z,5.70
2023-04-14T00:38:12.445Z,5.93
2023-04-14T00:40:40.480Z,7.60
2023-04-14T00:43:07.999Z,8.48
2023-04-14T00:45:38.825Z,10.05
2023-04-14T00:48:06.691Z,8.38
2023-04-14T00:50:35.624Z,9.95
2023-04-14T00:53:03.177Z,8.80
2023-04-14T00:55:31.071Z,6.47
2023-04-14T00:57:58.579Z,10.55
2023-04-14T01:00:26.228Z,9.50
2023-04-14T01:02:54.635Z,8.02
2023-04-14T01:05:22.244Z,15.10
2023-04-14T01:07:51.224Z,10.48
2023-04-14T01:10:18.751Z,14.35
2023-04-14T01:12:57.759Z,8.63
2023-04-14T01:15:29.407Z,13.57
2023-04-14T01:17:59.900Z,6.93
2023-04-14T01:20:31.187Z,11.18
2023-04-14T01:23:05.669Z,9.00
2023-04-14T01:25:43.636Z,12.82
2023-04-14T01:28:15.382Z,10.80
2023-04-14T01:30:55.803Z,9.60
2023-04-14T01:33:27.287Z,8.52
2023-04-14T01:35:56.468Z,9.77
2023-04-14T01:38:26.343Z,13.55
2023-04-14T01:40:55.083Z,11.70
2023-04-14T01:43:26.294Z,9.77
2023-04-14T01:45:56.618Z,9.02
2023-04-14T01:48:26.047Z,9.20
2023-04-14T01:50:54.467Z,13.45
2023-04-14T01:53:22.530Z,13.05
2023-04-14T01:55:50.539Z,10.05
2023-04-14T01:58:18.901Z,16.20
2023-04-14T02:00:46.887Z,10.43
2023-04-14T02:03:14.775Z,12.10
2023-04-14T02:05:43.832Z,13.68
2023-04-14T02:08:12.561Z,11.02
2023-04-14T02:10:41.674Z,11.30
2023-04-14T02:13:10.657Z,13.55
2023-04-14T02:15:38.307Z,9.98
2023-04-14T02:18:06.829Z,9.02
2023-04-14T02:20:34.685Z,17.65
2023-04-14T02:23:03.928Z,12.23
2023-04-14T02:25:33.309Z,9.23
2023-04-14T02:28:03.773Z,10.55
2023-04-14T02:30:32.666Z,10.88
2023-04-14T02:33:02.963Z,10.80
2023-04-14T02:35:31.589Z,14.48
2023-04-14T02:38:04.754Z,12.82
2023-04-14T02:40:37.297Z,17.38
2023-04-14T02:43:06.436Z,13.20
2023-04-14T02:45:34.817Z,12.18
2023-04-14T02:48:04.187Z,11.35
2023-04-14T02:50:32.778Z,13.57
2023-04-14T02:53:01.470Z,14.45
2023-04-14T02:55:29.922Z,15.00
2023-04-14T02:57:59.557Z,11.30
2023-04-14T03:00:27.329Z,13.45
2023-04-14T03:02:56.045Z,11.27
2023-04-14T03:05:24.709Z,12.02
2023-04-14T03:07:53.211Z,14.35
2023-04-14T03:10:21.157Z,11.20
2023-04-14T03:12:49.104Z,12.82
2023-04-14T03:15:18.194Z,11.05
2023-04-14T03:17:48.283Z,17.63
2023-04-14T03:20:20.090Z,17.63
2023-04-14T03:22:48.409Z,14.65
2023-04-14T03:25:15.957Z,11.98
2023-04-14T03:27:45.276Z,14.18
2023-04-14T03:30:14.384Z,18.05
2023-04-14T03:32:44.497Z,13.80
2023-04-14T03:35:15.044Z,16.10
2023-04-14T03:37:43.230Z,17.90
2023-04-14T03:40:11.295Z,13.18
2023-04-14T03:42:39.672Z,15.57
2023-04-14T03:45:07.828Z,16.95
2023-04-14T03:47:35.905Z,17.65
2023-04-14T03:50:06.052Z,27.25
2023-04-14T03:52:35.397Z,17.80
2023-04-14T03:55:06.457Z,15.85
2023-04-14T03:57:34.218Z,18.33
2023-04-14T04:00:02.495Z,14.27
2023-04-14T04:02:31.366Z,17.23
2023-04-14T04:05:00.027Z,14.73
2023-04-14T04:07:30.048Z,18.05
2023-04-14T04:10:00.390Z,19.10
2023-04-14T04:12:31.081Z,17.67
2023-04-14T04:14:58.640Z,21.27
2023-04-14T04:17:27.282Z,19.80
2023-04-14T04:19:55.784Z,15.43
2023-04-14T04:22:24.628Z,19.05
2023-04-14T04:24:54.316Z,17.88
2023-04-14T04:27:28.200Z,20.25
2023-04-14T04:32:23.930Z,26.38
2023-04-14T04:34:51.992Z,18.50
2023-04-14T04:37:19.875Z,22.33
2023-04-14T04:39:48.681Z,18.95
2023-04-14T04:42:17.600Z,19.13
2023-04-14T04:44:45.075Z,18.75
2023-04-14T04:47:13.960Z,20.45
2023-04-14T04:49:41.475Z,20.85
2023-04-14T04:52:09.014Z,18.35
2023-04-14T04:54:36.707Z,18.30
2023-04-14T04:57:04.444Z,19.30
2023-04-14T04:59:35.062Z,25.50
2023-04-14T05:02:04.271Z,22.63
2023-04-14T05:04:32.056Z,19.45
2023-04-14T05:06:59.678Z,19.08
2023-04-14T05:09:27.595Z,16.23
2023-04-14T05:11:55.094Z,17.58
2023-04-14T05:14:22.782Z,19.83
2023-04-14T05:16:51.686Z,19.05
2023-04-14T05:19:19.271Z,17.00
2023-04-14T05:21:46.858Z,20.88
2023-04-14T05:24:14.550Z,28.05
2023-04-14T05:27:01.526Z,22.25
2023-04-14T05:29:32.369Z,17.58
2023-04-14T05:32:01.296Z,17.50
2023-04-14T05:34:28.825Z,19.85
2023-04-14T05:36:56.552Z,25.05
2023-04-14T05:39:24.549Z,24.70
2023-04-14T05:41:52.523Z,20.48
2023-04-14T05:44:20.303Z,24.95
2023-04-14T05:46:48.065Z,19.23
2023-04-14T05:49:17.085Z,15.95
2023-04-14T05:51:44.850Z,24.90
2023-04-14T05:54:12.363Z,22.50
2023-04-14T05:56:43.710Z,18.52
2023-04-14T05:59:11.434Z,16.08
2023-04-14T06:01:39.073Z,17.95
2023-04-14T06:04:07.325Z,19.55
2023-04-14T06:06:36.606Z,20.92
2023-04-14T06:09:04.284Z,21.17
2023-04-14T06:11:31.990Z,16.85
2023-04-14T06:14:01.949Z,18.65
2023-04-14T06:16:29.752Z,19.75
2023-04-14T06:18:57.298Z,17.80
2023-04-14T06:21:26.816Z,29.38
2023-04-14T06:23:55.658Z,22.83
2023-04-14T06:26:23.322Z,17.15
2023-04-14T06:28:50.944Z,21.67
2023-04-14T06:31:18.751Z,18.42
2023-04-14T06:33:46.537Z,19.80
2023-04-14T06:36:17.039Z,21.77
2023-04-14T06:38:44.690Z,18.25
2023-04-14T06:41:13.532Z,19.73
2023-04-14T06:43:42.841Z,18.27
2023-04-14T06:46:10.509Z,18.60
2023-04-14T06:48:38.046Z,15.98
2023-04-14T06:51:05.870Z,18.60
2023-04-14T06:53:33.370Z,20.70
2023-04-14T06:56:01.509Z,14.90
2023-04-14T06:58:30.628Z,16.58
2023-04-14T07:00:58.334Z,18.33
2023-04-14T07:03:26.214Z,22.20
2023-04-14T07:05:54.120Z,22.20
2023-04-14T07:08:22.012Z,20.13
2023-04-14T07:10:50.620Z,18.80
2023-04-14T07:13:18.155Z,18.05
2023-04-14T07:15:48.473Z,18.77
2023-04-14T07:18:16.058Z,17.50
2023-04-14T07:20:43.626Z,20.23
2023-04-14T07:23:11.375Z,18.77
2023-04-14T07:25:38.944Z,19.15
2023-04-14T07:28:08.793Z,23.73
2023-04-14T07:30:36.916Z,18.67
2023-04-14T07:33:05.924Z,17.42
2023-04-14T07:35:34.313Z,17.85
2023-04-14T07:38:01.874Z,16.65
2023-04-14T07:40:29.380Z,14.02
2023-04-14T07:42:58.066Z,21.33
2023-04-14T07:45:25.548Z,19.70
2023-04-14T07:47:54.283Z,18.77
2023-04-14T08:10:23.197Z,20.95
2023-04-14T08:12:50.790Z,21.88
2023-04-14T08:15:18.678Z,19.45
2023-04-14T08:17:46.372Z,24.80
2023-04-14T08:20:14.069Z,20.05
2023-04-14T08:22:43.250Z,22.48
2023-04-14T08:25:12.168Z,15.80
2023-04-14T08:27:41.902Z,16.48
2023-04-14T08:30:11.562Z,18.10
2023-04-14T08:32:39.356Z,14.52
2023-04-14T08:35:35.345Z,19.20
2023-04-14T08:37:55.045Z,16.05
2023-04-14T08:40:23.311Z,16.08
2023-04-14T08:42:52.281Z,16.65
2023-04-14T08:45:20.368Z,14.25
2023-04-14T08:47:49.302Z,15.90
2023-04-14T08:50:18.163Z,13.45
2023-04-14T08:52:47.152Z,17.38
2023-04-14T08:55:15.628Z,16.98
2023-04-14T08:57:44.773Z,17.42
2023-04-14T09:00:20.804Z,14.20
2023-04-14T09:02:48.527Z,16.70
2023-04-14T09:05:16.843Z,15.25
2023-04-14T09:07:45.082Z,15.90
2023-04-14T09:10:13.068Z,18.80
2023-04-14T09:12:42.010Z,15.27
2023-04-14T09:15:10.431Z,16.85
2023-04-14T09:17:39.450Z,16.20
2023-04-14T09:20:38.579Z,17.33
2023-04-14T09:22:57.581Z,14.52
2023-04-14T09:25:25.251Z,13.10
2023-04-14T09:27:53.481Z,12.40
2023-04-14T09:30:21.501Z,14.65
2023-04-14T09:32:53.845Z,14.73
2023-04-14T09:35:21.736Z,19.88
2023-04-14T09:37:49.751Z,15.73
2023-04-14T09:40:28.634Z,12.07
2023-04-14T09:42:57.395Z,10.98
2023-04-14T09:45:40.985Z,13.55
2023-04-14T09:48:13.060Z,14.30
2023-04-14T09:51:00.452Z,17.35
2023-04-14T09:53:28.946Z,13.23
2023-04-14T09:55:59.778Z,13.27
2023-04-14T09:58:31.112Z,15.48
2023-04-14T10:01:02.490Z,19.15
2023-04-14T10:03:36.713Z,14.93
2023-04-14T10:06:07.435Z,15.95
2023-04-14T10:08:36.381Z,13.13
2023-04-14T10:11:21.431Z,16.23
2023-04-14T10:13:49.590Z,13.35
2023-04-14T10:16:17.810Z,12.30
2023-04-14T10:18:47.307Z,14.50
2023-04-14T10:21:15.685Z,22.33
2023-04-14T10:23:43.767Z,15.40
2023-04-14T10:26:12.075Z,13.05
2023-04-14T10:28:50.967Z,15.63
2023-04-14T10:31:23.267Z,13.45
2023-04-14T10:33:52.574Z,11.52
2023-04-14T10:36:26.782Z,14.23
2023-04-14T10:39:00.090Z,14.52
2023-04-14T10:41:28.362Z,17.42
2023-04-14T10:43:56.630Z,12.45
2023-04-14T10:46:24.680Z,12.88
2023-04-14T10:48:54.323Z,11.32
2023-04-14T10:51:22.528Z,15.05
2023-04-14T10:53:54.434Z,14.05
2023-04-14T10:56:24.105Z,11.68
2023-04-14T10:58:55.188Z,13.77
2023-04-14T11:01:27.255Z,20.85
2023-04-14T11:03:56.969Z,14.63
2023-04-14T11:06:40.876Z,11.10
2023-04-14T11:09:22.893Z,11.37
2023-04-14T11:11:50.522Z,12.05
2023-04-14T11:14:18.046Z,12.20
2023-04-14T11:16:54.190Z,9.32
2023-04-14T11:19:33.288Z,15.70
2023-04-14T11:22:01.225Z,12.40
2023-04-14T11:24:29.492Z,15.70
2023-04-14T11:26:57.936Z,9.60
2023-04-14T11:29:25.473Z,10.98
2023-04-14T11:32:02.905Z,10.75
2023-04-14T11:34:34.339Z,10.20
2023-04-14T11:37:08.184Z,15.55
2023-04-14T11:39:36.718Z,9.63
2023-04-14T11:42:05.575Z,10.85
2023-04-14T11:44:33.849Z,10.50
2023-04-14T11:47:01.542Z,8.90
2023-04-14T11:49:38.003Z,10.23
2023-04-14T11:52:07.345Z,10.52
2023-04-14T11:54:38.377Z,12.05
2023-04-14T11:57:10.249Z,11.80
2023-04-14T11:59:42.393Z,13.38
2023-04-14T12:02:18.879Z,10.43
2023-04-14T12:04:51.773Z,11.15
2023-04-14T12:07:20.303Z,8.15
2023-04-14T12:09:50.105Z,11.10
2023-04-14T12:12:18.897Z,10.13
2023-04-14T12:14:46.984Z,13.85
2023-04-14T12:17:15.456Z,14.30
2023-04-14T12:19:43.466Z,9.68
2023-04-14T12:22:12.445Z,10.18
2023-04-14T12:24:40.470Z,10.23
2023-04-14T12:27:10.105Z,15.27
2023-04-14T12:29:38.408Z,13.35
2023-04-14T12:32:11.356Z,11.30
2023-04-14T12:34:38.981Z,11.68
2023-04-14T12:37:10.342Z,11.25
2023-04-14T12:39:52.830Z,7.80
2023-04-14T12:42:21.089Z,14.30
2023-04-14T12:45:12.570Z,11.75
2023-04-14T12:47:40.772Z,10.55
2023-04-14T12:50:35.975Z,12.52
2023-04-14T12:53:03.899Z,16.75
2023-04-14T12:55:40.651Z,10.68
2023-04-14T12:58:15.824Z,9.52
2023-04-14T13:00:51.327Z,13.18
2023-04-14T13:03:27.977Z,12.63
2023-04-14T13:05:59.435Z,16.35
2023-04-14T13:08:35.780Z,12.13
2023-04-14T13:11:34.011Z,13.32
2023-04-14T13:14:34.338Z,16.90
2023-04-14T13:17:02.332Z,17.77
2023-04-14T13:19:30.182Z,12.00
2023-04-14T13:24:59.516Z,11.50
2023-04-14T13:27:27.459Z,15.57
2023-04-14T13:30:02.470Z,13.80
2023-04-14T13:32:31.933Z,12.02
2023-04-14T13:34:59.770Z,12.82
2023-04-14T13:37:35.177Z,10.52
2023-04-14T13:40:03.617Z,11.52
2023-04-14T13:42:31.463Z,10.77
2023-04-14T13:59:42.885Z,11.80
2023-04-14T14:02:35.412Z,12.93
2023-04-14T14:05:37.995Z,9.43
2023-04-14T14:17:56.267Z,11.48
2023-04-14T14:20:26.224Z,8.85
2023-04-14T14:22:59.742Z,12.52
2023-04-14T14:25:32.248Z,9.68
2023-04-14T14:28:08.059Z,12.45
2023-04-14T14:30:40.892Z,12.05
2023-04-14T14:33:09.255Z,7.13
2023-04-14T14:38:22.229Z,12.98
2023-04-14T14:40:54.152Z,8.68
2023-04-14T14:43:25.858Z,9.32
2023-04-14T14:47:06.791Z,10.73
2023-04-14T14:53:24.831Z,12.05
2023-04-14T15:00:04.442Z,8.82
2023-04-14T15:47:35.758Z,9.95
2023-04-14T16:02:28.101Z,12.90
2023-04-14T16:08:03.844Z,11.73
2023-04-14T16:17:15.284Z,11.75
2023-04-14T16:20:02.866Z,13.80
2023-04-14T16:22:38.911Z,10.93
2023-04-14T16:35:58.957Z,11.10
2023-04-14T16:53:18.128Z,10.13
2023-04-14T16:55:48.604Z,11.55
2023-04-14T17:12:02.726Z,15.10
2023-04-14T17:14:38.085Z,14.30
2023-04-14T17:17:15.548Z,13.30
2023-04-14T17:19:47.504Z,8.15
2023-04-14T17:22:15.899Z,7.35
2023-04-14T17:28:39.829Z,8.35
2023-04-14T17:31:19.017Z,9.57
2023-04-14T17:33:47.753Z,12.85
2023-04-14T17:36:54.227Z,10.85
2023-04-14T17:39:39.362Z,10.07
2023-04-14T17:49:08.522Z,8.93
2023-04-14T17:51:54.254Z,11.20
2023-04-14T17:54:25.211Z,9.38
2023-04-14T17:57:00.967Z,8.15
2023-04-14T17:59:29.313Z,11.55
2023-04-14T18:02:09.446Z,9.18
2023-04-14T18:04:43.100Z,11.68
2023-04-14T18:07:14.415Z,12.18
2023-04-14T18:16:12.093Z,10.80
2023-04-14T18:18:57.322Z,9.43
2023-04-14T18:21:46.169Z,9.70
2023-04-14T18:30:42.115Z,10.20
2023-04-14T18:33:11.212Z,17.83
2023-04-14T18:36:02.686Z,15.43
2023-04-14T18:38:30.415Z,13.68
2023-04-14T18:41:06.272Z,14.45
2023-04-14T18:43:37.044Z,15.85
2023-04-14T18:46:06.675Z,8.23
2023-04-14T18:48:34.525Z,16.00
2023-04-14T18:51:08.140Z,15.70
2023-04-14T18:53:36.268Z,9.77
2023-04-14T18:56:05.451Z,11.90
2023-04-14T18:58:35.926Z,11.13
2023-04-14T19:01:12.487Z,13.15
2023-04-14T19:03:49.085Z,12.52
2023-04-14T19:06:19.696Z,12.82
2023-04-14T19:08:47.396Z,13.93
2023-04-14T19:11:16.475Z,17.23
2023-04-14T19:13:44.005Z,13.77
2023-04-14T19:16:12.708Z,15.82
2023-04-14T19:18:41.096Z,14.85
2023-04-14T19:21:09.232Z,13.20
2023-04-14T19:23:37.368Z,13.15
2023-04-14T19:26:06.460Z,19.50
2023-04-14T19:28:38.685Z,11.65
2023-04-14T19:31:06.391Z,9.50
2023-04-14T19:33:34.723Z,10.20
2023-04-14T19:36:02.826Z,12.00
2023-04-14T19:38:30.751Z,9.15
2023-04-14T19:40:59.111Z,14.48
2023-04-14T19:43:26.822Z,11.82
2023-04-14T19:45:57.844Z,11.27
2023-04-14T19:48:25.751Z,8.95
2023-04-14T19:50:59.475Z,14.73
2023-04-14T19:53:28.228Z,20.75
2023-04-14T19:56:00.043Z,9.13
2023-04-14T19:58:28.655Z,10.88
2023-04-14T20:00:59.053Z,7.72
2023-04-14T20:03:27.407Z,10.02
2023-04-14T20:05:55.962Z,9.30
2023-04-14T20:08:23.664Z,10.35
2023-04-14T20:10:55.032Z,9.68
2023-04-14T20:13:23.828Z,13.15
2023-04-14T20:15:54.121Z,13.60
2023-04-14T20:18:23.445Z,8.55
2023-04-14T20:20:51.014Z,10.82
2023-04-14T20:23:18.717Z,14.48
2023-04-14T20:25:48.446Z,11.75
2023-04-14T20:28:16.706Z,10.70
2023-04-14T20:30:45.180Z,8.65
2023-04-14T20:33:12.858Z,10.77
2023-04-14T20:35:43.503Z,9.88
2023-04-14T20:38:13.284Z,13.48
2023-04-14T20:40:42.529Z,12.00
2023-04-14T20:43:10.056Z,12.07
2023-04-14T20:45:43.314Z,10.13
2023-04-14T20:48:11.377Z,8.52
2023-04-14T20:50:38.866Z,14.57
2023-04-14T20:53:08.926Z,9.15
2023-04-14T20:55:36.982Z,7.78
2023-04-14T20:58:04.521Z,10.50
2023-04-14T21:00:34.240Z,8.80
2023-04-14T21:03:05.625Z,9.55
2023-04-14T21:05:33.414Z,10.10
2023-04-14T21:08:03.648Z,14.20
2023-04-14T21:10:32.816Z,14.65
2023-04-14T21:15:29.673Z,10.00
2023-04-14T21:15:55.844Z,9.27
2023-04-14T21:18:25.205Z,10.32
2023-04-14T21:20:52.944Z,11.43
2023-04-14T21:23:21.284Z,8.52
2023-04-14T21:25:50.271Z,8.32
2023-04-14T21:28:18.194Z,8.40
2023-04-14T21:30:45.702Z,8.13
2023-04-14T21:33:13.843Z,8.18
2023-04-14T21:35:41.608Z,8.27
2023-04-14T21:38:09.651Z,9.57
2023-04-14T21:40:37.328Z,5.95
2023-04-14T21:43:06.293Z,5.95
2023-04-14T21:45:33.876Z,9.10
2023-04-14T21:48:01.497Z,10.18
2023-04-14T21:50:30.276Z,7.63
2023-04-14T21:52:58.424Z,7.15
2023-04-14T21:55:26.047Z,7.57
2023-04-14T21:57:54.575Z,9.38
2023-04-14T22:00:24.131Z,5.93
2023-04-14T22:02:52.185Z,6.45
2023-04-14T22:05:19.984Z,8.05
2023-04-14T22:07:47.869Z,6.63
2023-04-14T22:10:15.939Z,8.73
2023-04-14T22:12:45.702Z,8.20
2023-04-14T22:15:14.672Z,12.50
2023-04-14T22:17:44.941Z,5.75
2023-04-14T22:20:13.026Z,4.95
2023-04-14T22:22:40.703Z,9.68
2023-04-14T22:25:09.839Z,6.78
2023-04-14T22:27:37.679Z,7.10
2023-04-14T22:30:06.179Z,5.15
2023-04-14T22:32:33.907Z,5.70
2023-04-14T22:35:03.735Z,6.82
2023-04-14T22:37:31.493Z,9.48
2023-04-14T22:40:02.111Z,6.88
2023-04-14T22:42:32.337Z,5.35
2023-04-14T22:45:01.488Z,10.10
2023-04-14T22:47:29.590Z,5.78
2023-04-14T22:49:57.488Z,10.85
2023-04-14T22:52:30.070Z,8.68
2023-04-14T22:54:57.995Z,8.73
2023-04-14T22:57:26.749Z,8.75
2023-04-14T22:59:54.445Z,7.07
2023-04-14T23:02:23.549Z,6.40
2023-04-14T23:04:52.327Z,7.75
2023-04-14T23:07:20.055Z,16.40
2023-04-14T23:09:49.925Z,6.03
2023-04-14T23:12:17.466Z,9.23
2023-04-14T23:14:45.573Z,7.70
2023-04-14T23:17:13.602Z,7.15
2023-04-14T23:19:42.233Z,7.05
2023-04-14T23:22:12.462Z,7.10
2023-04-14T23:24:40.199Z,7.32
2023-04-14T23:27:09.222Z,7.28
2023-04-14T23:29:37.657Z,16.58
2023-04-14T23:32:05.406Z,10.38
2023-04-14T23:34:34.203Z,6.65
2023-04-14T23:37:01.777Z,9.50
2023-04-14T23:39:30.465Z,6.20
2023-04-14T23:41:58.522Z,9.15
2023-04-14T23:44:28.400Z,8.35
2023-04-14T23:46:56.500Z,6.55
2023-04-14T23:49:34.181Z,6.30
2023-04-14T23:52:03.399Z,6.35
2023-04-14T23:54:31.814Z,7.38
2023-04-14T23:57:00.247Z,7.32
2023-04-14T23:59:29.409Z,5.88
